This is the latest recevied weather packets stored in our database for station/object DG4DAZ-6. If no packets are shown the sender has not sent any weather packets the latest 10 day(s).
| Time | Temp. | Humidity | Pressure | Rain* | Wind** | Luminosity | Snow |
|---|---|---|---|---|---|---|---|
| 1777449983 | 12.22° C | 42% | 1024.6 hPa | 0 mm | - | 551 W/m² | - |
| 1777449382 | 12.22° C | 41% | 1024.7 hPa | 0 mm | - | 530 W/m² | - |
| 1777448783 | 11.67° C | 41% | 1024.5 hPa | 0 mm | - | 509 W/m² | - |
| 1777448183 | 11.67° C | 42% | 1024.4 hPa | 0 mm | - | 484 W/m² | - |
| 1777447584 | 11.67° C | 42% | 1024.4 hPa | 0 mm | - | 451 W/m² | - |
| 1777446983 | 11.11° C | 42% | 1024.3 hPa | 0 mm | - | 410 W/m² | - |
| 1777446383 | 10.56° C | 44% | 1024.3 hPa | 0 mm | - | 367 W/m² | - |
| 1777445783 | 10.56° C | 44% | 1024.2 hPa | 0 mm | - | 326 W/m² | - |
| 1777445184 | 10° C | 45% | 1024.1 hPa | 0 mm | - | 291 W/m² | - |
| 1777444583 | 9.44° C | 46% | 1023.9 hPa | 0 mm | - | 265 W/m² | - |
| 1777443983 | 8.89° C | 46% | 1023.8 hPa | 0 mm | - | 243 W/m² | - |
| 1777443384 | 8.33° C | 47% | 1023.9 hPa | 0 mm | - | 187 W/m² | - |
| 1777442783 | 8.33° C | 48% | 1023.7 hPa | 0 mm | - | 198 W/m² | - |
| 1777442183 | 7.78° C | 48% | 1023.7 hPa | 0 mm | - | 194 W/m² | - |
| 1777441583 | 7.22° C | 52% | 1023.7 hPa | 0 mm | - | 172 W/m² | - |
| 1777440982 | 6.11° C | 57% | 1023.7 hPa | 0 mm | - | 144 W/m² | - |
| 1777440384 | 5° C | 62% | 1023.6 hPa | 0 mm | - | 36 W/m² | - |
| 1777439783 | 4.44° C | 64% | 1023.6 hPa | 0 mm | - | 26 W/m² | - |
| 1777439184 | 4.44° C | 66% | 1023.6 hPa | 0 mm | - | 22 W/m² | - |
| 1777438583 | 3.89° C | 67% | 1023.5 hPa | 0 mm | - | 19 W/m² | - |
| 1777437983 | 3.89° C | 67% | 1023.5 hPa | 0 mm | - | 15 W/m² | - |
| 1777437384 | 3.89° C | 67% | 1023.5 hPa | 0 mm | - | 12 W/m² | - |
| 1777436784 | 3.89° C | 66% | 1023.4 hPa | 0 mm | - | 9 W/m² | - |
| 1777436183 | 4.44° C | 65% | 1023.4 hPa | 0 mm | - | 5 W/m² | - |
| 1777435583 | 4.44° C | 65% | 1023.3 hPa | 0 mm | - | 0 W/m² | - |
* Rain latest hour (hover to see other rain measurements)
** Current wind speed in m/s (hover to see current wind gust speed)